createdAt,value
2023-02-08T00:00:44.457Z,39.95
2023-02-08T00:03:11.862Z,45.40
2023-02-08T00:05:39.320Z,40.28
2023-02-08T00:08:06.482Z,41.53
2023-02-08T00:10:33.824Z,44.00
2023-02-08T00:13:01.729Z,41.17
2023-02-08T00:15:28.584Z,42.67
2023-02-08T00:17:55.589Z,42.80
2023-02-08T00:20:22.555Z,45.22
2023-02-08T00:22:49.404Z,43.00
2023-02-08T00:25:16.390Z,45.70
2023-02-08T00:27:43.236Z,41.75
2023-02-08T00:30:10.525Z,47.70
2023-02-08T00:32:37.626Z,40.53
2023-02-08T00:35:04.607Z,41.55
2023-02-08T00:37:31.448Z,40.85
2023-02-08T00:40:00.090Z,42.70
2023-02-08T00:42:27.559Z,45.42
2023-02-08T00:44:54.333Z,43.08
2023-02-08T00:47:21.186Z,39.28
2023-02-08T00:49:48.078Z,40.60
2023-02-08T00:52:14.874Z,43.55
2023-02-08T00:54:42.828Z,40.30
2023-02-08T00:57:09.661Z,43.03
2023-02-08T00:59:36.435Z,40.97
2023-02-08T01:02:03.349Z,38.80
2023-02-08T01:04:30.253Z,42.60
2023-02-08T01:06:57.222Z,39.50
2023-02-08T01:09:24.540Z,44.13
2023-02-08T01:11:51.445Z,43.65
2023-02-08T01:14:18.318Z,42.75
2023-02-08T01:16:45.133Z,48.05
2023-02-08T01:19:12.500Z,44.63
2023-02-08T01:21:41.526Z,42.28
2023-02-08T01:24:09.279Z,45.08
2023-02-08T01:26:36.494Z,42.78
2023-02-08T01:29:04.397Z,41.50
2023-02-08T01:31:37.597Z,43.70
2023-02-08T01:34:05.569Z,40.72
2023-02-08T01:36:33.270Z,45.08
2023-02-08T01:39:00.524Z,46.13
2023-02-08T01:41:30.469Z,46.05
2023-02-08T01:44:12.254Z,39.53
2023-02-08T01:46:40.582Z,38.55
2023-02-08T01:49:21.893Z,41.92
2023-02-08T01:51:59.312Z,39.05
2023-02-08T01:54:30.831Z,41.63
2023-02-08T01:56:57.943Z,48.35
2023-02-08T01:59:29.567Z,40.10
2023-02-08T02:01:59.059Z,38.08
2023-02-08T02:04:27.091Z,42.20
2023-02-08T02:06:58.685Z,46.58
2023-02-08T02:09:40.540Z,41.50
2023-02-08T02:12:09.465Z,42.95
2023-02-08T02:14:38.570Z,44.40
2023-02-08T02:17:06.390Z,46.58
2023-02-08T02:19:57.763Z,44.42
2023-02-08T02:22:55.695Z,42.83
2023-02-08T02:25:28.672Z,50.90
2023-02-08T02:28:16.415Z,46.10
2023-02-08T02:31:07.839Z,39.97
2023-02-08T02:33:53.773Z,46.35
2023-02-08T02:36:23.394Z,40.97
2023-02-08T02:39:03.382Z,44.90
2023-02-08T02:42:03.066Z,39.42
2023-02-08T02:44:56.792Z,47.92
2023-02-08T02:47:35.537Z,41.42
2023-02-08T02:50:28.743Z,41.90
2023-02-08T02:53:06.278Z,43.85
2023-02-08T02:55:38.768Z,44.00
2023-02-08T02:58:08.607Z,45.20
2023-02-08T03:00:35.450Z,47.17
2023-02-08T03:03:02.299Z,45.80
2023-02-08T03:05:29.764Z,45.65
2023-02-08T03:07:56.547Z,43.90
2023-02-08T03:10:29.415Z,46.47
2023-02-08T03:13:05.985Z,45.35
2023-02-08T03:15:55.716Z,48.13
2023-02-08T03:18:50.107Z,46.25
2023-02-08T03:21:19.989Z,46.53
2023-02-08T03:23:53.385Z,48.22
2023-02-08T03:26:30.157Z,44.83
2023-02-08T03:29:37.370Z,50.60
2023-02-08T03:32:14.006Z,45.85
2023-02-08T03:35:19.604Z,47.00
2023-02-08T03:38:13.371Z,51.38
2023-02-08T03:40:43.714Z,59.42
2023-02-08T03:43:36.223Z,66.07
2023-02-08T03:46:14.221Z,47.10
2023-02-08T03:48:46.290Z,64.18
2023-02-08T03:51:16.117Z,47.42
2023-02-08T03:53:45.812Z,46.25
2023-02-08T03:56:30.781Z,48.20
2023-02-08T03:59:05.743Z,46.13
2023-02-08T04:01:41.334Z,44.60
2023-02-08T04:04:08.712Z,47.40
2023-02-08T04:06:35.677Z,50.45
2023-02-08T04:09:02.604Z,42.25
2023-02-08T04:11:29.352Z,42.28
2023-02-08T04:13:56.118Z,41.35
2023-02-08T04:16:22.957Z,47.78
2023-02-08T04:18:49.808Z,47.25
2023-02-08T04:21:16.652Z,44.08
2023-02-08T04:23:43.509Z,50.25
2023-02-08T04:26:10.756Z,64.05
2023-02-08T04:28:37.585Z,53.83
2023-02-08T04:31:04.732Z,51.60
2023-02-08T04:33:31.606Z,49.75
2023-02-08T04:35:58.480Z,54.05
2023-02-08T04:38:25.297Z,45.13
2023-02-08T04:40:52.074Z,49.97
2023-02-08T04:43:18.922Z,44.70
2023-02-08T04:45:45.762Z,79.70
2023-02-08T04:48:12.606Z,47.75
2023-02-08T04:50:39.724Z,47.80
2023-02-08T04:53:07.883Z,52.72
2023-02-08T04:55:35.056Z,47.05
2023-02-08T04:58:02.369Z,51.65
2023-02-08T05:00:29.329Z,47.53
2023-02-08T05:02:57.854Z,49.33
2023-02-08T05:05:26.086Z,53.15
2023-02-08T05:07:53.027Z,50.50
2023-02-08T05:10:19.973Z,53.13
2023-02-08T05:12:46.785Z,47.28
2023-02-08T05:15:13.902Z,50.50
2023-02-08T05:17:40.787Z,49.72
2023-02-08T05:20:08.727Z,52.88
2023-02-08T05:22:35.716Z,54.85
2023-02-08T05:25:02.636Z,50.80
2023-02-08T05:27:29.507Z,55.80
2023-02-08T05:29:58.145Z,55.13
2023-02-08T05:32:25.889Z,48.83
2023-02-08T05:34:52.679Z,58.25
2023-02-08T05:37:19.572Z,50.30
2023-02-08T05:39:46.367Z,58.63
2023-02-08T05:42:13.180Z,54.42
2023-02-08T05:44:40.205Z,58.08
2023-02-08T05:47:07.077Z,50.10
2023-02-08T05:49:33.968Z,50.72
2023-02-08T05:52:00.842Z,49.72
2023-02-08T05:54:27.638Z,46.55
2023-02-08T05:56:54.595Z,54.72
2023-02-08T05:59:21.427Z,51.22
2023-02-08T06:01:48.251Z,52.22
2023-02-08T06:04:15.044Z,50.92
2023-02-08T06:06:41.935Z,49.53
2023-02-08T06:09:08.685Z,48.83
2023-02-08T06:11:36.231Z,46.40
2023-02-08T06:14:03.418Z,44.05
2023-02-08T06:16:30.450Z,54.25
2023-02-08T06:18:57.758Z,50.08
2023-02-08T06:21:24.812Z,57.15
2023-02-08T06:23:51.841Z,45.92
2023-02-08T06:26:18.680Z,54.65
2023-02-08T06:28:45.816Z,51.92
2023-02-08T06:31:12.631Z,50.03
2023-02-08T06:33:39.475Z,55.17
2023-02-08T06:36:06.790Z,51.47
2023-02-08T06:38:33.636Z,51.15
2023-02-08T06:41:00.473Z,58.03
2023-02-08T06:43:27.452Z,51.72
2023-02-08T06:45:54.347Z,52.20
2023-02-08T06:48:21.289Z,49.40
2023-02-08T06:50:48.150Z,47.80
2023-02-08T06:53:15.017Z,49.55
2023-02-08T06:55:41.827Z,56.90
2023-02-08T06:58:08.718Z,48.15
2023-02-08T07:00:35.546Z,50.58
2023-02-08T07:03:02.356Z,55.67
2023-02-08T07:05:29.228Z,50.10
2023-02-08T07:07:56.074Z,56.00
2023-02-08T07:10:22.957Z,52.25
2023-02-08T07:12:49.841Z,51.58
2023-02-08T07:15:16.779Z,51.08
2023-02-08T07:17:43.654Z,50.40
2023-02-08T07:20:11.617Z,52.17
2023-02-08T07:22:39.472Z,47.65
2023-02-08T07:25:08.132Z,50.00
2023-02-08T07:27:35.268Z,52.13
2023-02-08T07:30:02.112Z,45.80
2023-02-08T07:32:28.940Z,49.95
2023-02-08T07:34:55.809Z,49.72
2023-02-08T07:37:22.679Z,52.08
2023-02-08T07:39:49.476Z,46.50
2023-02-08T07:42:16.366Z,47.20
2023-02-08T07:44:43.289Z,52.15
2023-02-08T07:47:10.829Z,54.70
2023-02-08T07:49:37.693Z,55.97
2023-02-08T07:52:04.667Z,54.53
2023-02-08T07:54:31.455Z,54.00
2023-02-08T07:56:58.391Z,61.88
2023-02-08T07:59:25.377Z,60.33
2023-02-08T08:01:52.251Z,55.55
2023-02-08T08:04:19.979Z,53.08
2023-02-08T08:06:47.025Z,58.33
2023-02-08T08:09:15.400Z,52.13
2023-02-08T08:11:42.380Z,56.33
2023-02-08T08:14:09.211Z,43.40
2023-02-08T08:16:36.126Z,47.28
2023-02-08T08:19:03.161Z,47.08
2023-02-08T08:21:29.957Z,52.40
2023-02-08T08:23:56.846Z,62.65
2023-02-08T08:26:23.809Z,58.83
2023-02-08T08:28:50.677Z,49.17
2023-02-08T08:31:20.724Z,49.78
2023-02-08T08:33:48.282Z,46.72
2023-02-08T08:36:15.503Z,55.53
2023-02-08T08:38:42.301Z,56.83
2023-02-08T08:41:11.144Z,54.10
2023-02-08T08:43:38.150Z,61.47
2023-02-08T08:46:08.582Z,46.47
2023-02-08T08:48:37.085Z,48.25
2023-02-08T08:51:04.277Z,50.72
2023-02-08T08:53:31.082Z,39.67
2023-02-08T08:55:58.081Z,53.50
2023-02-08T08:58:24.897Z,40.53
2023-02-08T09:00:52.111Z,40.75
2023-02-08T09:03:19.000Z,41.22
2023-02-08T09:05:47.181Z,52.45
2023-02-08T09:08:14.052Z,31.45
2023-02-08T09:10:41.410Z,31.90
2023-02-08T09:13:08.741Z,34.47
2023-02-08T09:15:39.298Z,37.28
2023-02-08T09:18:06.614Z,30.95
2023-02-08T09:20:33.605Z,30.70
2023-02-08T09:23:00.702Z,29.23
2023-02-08T09:25:27.727Z,33.38
2023-02-08T09:27:54.541Z,28.50
2023-02-08T09:30:21.591Z,30.42
2023-02-08T09:32:48.678Z,29.15
2023-02-08T09:35:16.153Z,33.22
2023-02-08T09:37:42.983Z,33.00
2023-02-08T09:40:28.178Z,35.80
2023-02-08T09:43:10.162Z,31.23
2023-02-08T09:46:05.497Z,26.88
2023-02-08T09:48:36.115Z,30.27
2023-02-08T09:51:14.930Z,25.90
2023-02-08T09:53:50.978Z,33.95
2023-02-08T09:58:53.099Z,30.90
2023-02-08T10:01:29.709Z,25.58
2023-02-08T10:04:25.514Z,30.98
2023-02-08T10:06:52.543Z,28.98
2023-02-08T10:09:24.762Z,22.45
2023-02-08T10:12:02.298Z,29.02
2023-02-08T10:14:37.515Z,24.55
2023-02-08T10:17:07.073Z,29.63
2023-02-08T10:19:56.403Z,26.00
2023-02-08T10:22:36.773Z,25.52
2023-02-08T10:25:27.958Z,28.38
2023-02-08T10:28:10.097Z,23.25
2023-02-08T10:30:48.875Z,29.40
2023-02-08T10:33:21.939Z,23.30
2023-02-08T10:35:50.825Z,23.27
2023-02-08T10:38:20.758Z,24.45
2023-02-08T10:40:55.670Z,22.48
2023-02-08T10:43:35.468Z,21.27
2023-02-08T10:46:24.114Z,19.33
2023-02-08T10:49:01.356Z,18.95
2023-02-08T10:51:28.778Z,20.33
2023-02-08T10:53:55.576Z,19.88
2023-02-08T10:56:57.941Z,21.92
2023-02-08T10:59:35.564Z,27.67
2023-02-08T11:02:02.886Z,20.23
2023-02-08T11:04:29.876Z,21.30
2023-02-08T11:06:56.979Z,15.88
2023-02-08T11:09:27.858Z,16.33
2023-02-08T11:11:56.242Z,14.35
2023-02-08T11:14:27.170Z,15.60
2023-02-08T11:16:59.334Z,16.42
2023-02-08T11:19:42.512Z,17.10
2023-02-08T11:22:16.634Z,20.02
2023-02-08T11:24:50.335Z,17.70
2023-02-08T11:27:19.104Z,22.13
2023-02-08T11:29:46.114Z,17.58
2023-02-08T11:32:20.602Z,15.32
2023-02-08T11:34:48.832Z,15.55
2023-02-08T11:37:23.372Z,19.20
2023-02-08T11:39:56.486Z,21.45
2023-02-08T11:42:38.041Z,21.45
2023-02-08T11:45:05.942Z,17.65
2023-02-08T11:47:35.443Z,17.65
2023-02-08T11:50:08.914Z,25.63
2023-02-08T11:52:38.189Z,19.63
2023-02-08T11:55:24.108Z,18.42
2023-02-08T11:58:23.329Z,20.80
2023-02-08T12:01:07.241Z,16.52
2023-02-08T12:03:39.732Z,19.60
2023-02-08T12:06:55.846Z,17.63
2023-02-08T12:09:59.765Z,18.85
2023-02-08T12:12:59.574Z,16.52
2023-02-08T12:15:59.181Z,18.92
2023-02-08T12:18:44.587Z,16.10
2023-02-08T12:21:29.615Z,15.15
2023-02-08T12:24:05.418Z,17.60
2023-02-08T12:27:00.261Z,17.02
2023-02-08T12:29:47.764Z,14.60
2023-02-08T12:32:30.245Z,16.58
2023-02-08T12:35:10.227Z,12.65
2023-02-08T12:38:25.840Z,14.88
2023-02-08T12:41:07.217Z,12.13
2023-02-08T12:43:58.511Z,10.70
2023-02-08T12:47:03.207Z,14.27
2023-02-08T12:49:49.004Z,11.52
2023-02-08T12:55:15.855Z,10.93
2023-02-08T12:57:46.251Z,10.60
2023-02-08T13:00:22.832Z,11.10
2023-02-08T13:03:11.194Z,10.45
2023-02-08T13:05:50.744Z,7.38
2023-02-08T13:08:37.071Z,7.55
2023-02-08T13:11:41.862Z,8.48
2023-02-08T13:14:29.999Z,8.65
2023-02-08T13:17:04.759Z,8.75
2023-02-08T13:19:48.204Z,12.25
2023-02-08T13:22:22.688Z,8.25
2023-02-08T13:25:05.034Z,10.40
2023-02-08T13:27:33.829Z,11.50
2023-02-08T13:30:01.659Z,9.15
2023-02-08T13:32:32.440Z,7.93
2023-02-08T13:35:04.369Z,9.40
2023-02-08T13:37:34.044Z,8.57
2023-02-08T13:40:20.437Z,13.20
2023-02-08T13:42:57.227Z,7.72
2023-02-08T13:45:29.771Z,9.45
2023-02-08T13:48:02.706Z,9.10
2023-02-08T13:50:38.295Z,9.98
2023-02-08T13:53:06.439Z,8.75
2023-02-08T13:55:33.802Z,9.10
2023-02-08T13:58:29.246Z,10.52
2023-02-08T14:01:02.118Z,13.25
2023-02-08T14:03:31.336Z,9.43
2023-02-08T14:06:03.892Z,11.38
2023-02-08T14:08:59.422Z,9.18
2023-02-08T14:14:14.406Z,7.22
2023-02-08T14:17:03.296Z,13.30
2023-02-08T14:19:35.326Z,8.73
2023-02-08T14:22:18.814Z,7.78
2023-02-08T14:25:05.769Z,6.22
2023-02-08T14:27:40.990Z,9.27
2023-02-08T14:30:17.058Z,7.17
2023-02-08T14:35:15.583Z,9.10
2023-02-08T14:37:44.992Z,9.30
2023-02-08T14:40:23.647Z,10.13
2023-02-08T14:43:00.735Z,10.25
2023-02-08T14:45:49.045Z,6.93
2023-02-08T14:48:21.189Z,8.48
2023-02-08T14:51:16.630Z,7.68
2023-02-08T14:53:48.750Z,6.55
2023-02-08T14:56:28.131Z,7.70
2023-02-08T14:59:03.372Z,6.95
2023-02-08T15:01:45.466Z,7.77
2023-02-08T15:04:14.782Z,7.65
2023-02-08T15:06:57.841Z,8.38
2023-02-08T15:09:28.736Z,8.77
2023-02-08T15:12:08.280Z,7.93
2023-02-08T15:14:39.830Z,7.63
2023-02-08T15:17:07.433Z,7.47
2023-02-08T15:19:38.639Z,11.32
2023-02-08T15:22:40.350Z,7.43
2023-02-08T15:25:25.141Z,7.72
2023-02-08T15:27:55.799Z,14.60
2023-02-08T15:30:33.255Z,8.32
2023-02-08T15:33:01.756Z,9.63
2023-02-08T15:35:31.685Z,12.05
2023-02-08T15:37:59.038Z,12.35
2023-02-08T15:40:32.858Z,8.98
2023-02-08T15:43:09.451Z,7.75
2023-02-08T15:45:36.568Z,17.63
2023-02-08T15:48:06.232Z,9.77
2023-02-08T15:50:33.843Z,10.43
2023-02-08T15:53:06.814Z,8.57
2023-02-08T15:55:50.139Z,7.80
2023-02-08T15:58:51.762Z,7.70
2023-02-08T16:01:21.035Z,11.68
2023-02-08T16:03:51.859Z,11.65
2023-02-08T16:06:27.363Z,7.53
2023-02-08T16:08:57.826Z,9.32
2023-02-08T16:11:28.361Z,8.15
2023-02-08T16:13:58.258Z,8.27
2023-02-08T16:16:43.589Z,8.20
2023-02-08T16:19:31.481Z,8.18
2023-02-08T16:22:21.634Z,8.32
2023-02-08T16:24:50.932Z,7.38
2023-02-08T16:27:30.310Z,6.90
2023-02-08T16:29:57.619Z,9.88
2023-02-08T16:32:36.996Z,8.52
2023-02-08T16:35:15.890Z,8.23
2023-02-08T16:37:43.143Z,8.10
2023-02-08T16:40:37.458Z,7.35
2023-02-08T16:43:17.828Z,13.20
2023-02-08T16:45:44.726Z,10.68
2023-02-08T16:48:35.023Z,9.00
2023-02-08T16:51:05.112Z,9.05
2023-02-08T16:53:41.930Z,10.30
2023-02-08T16:56:11.134Z,12.18
2023-02-08T16:58:38.469Z,11.55
2023-02-08T17:01:06.006Z,10.32
2023-02-08T17:03:33.192Z,9.93
2023-02-08T17:06:01.080Z,10.07
2023-02-08T17:08:28.160Z,11.48
2023-02-08T17:10:59.034Z,12.30
2023-02-08T17:13:29.289Z,11.85
2023-02-08T17:15:58.448Z,12.48
2023-02-08T17:18:25.480Z,12.93
2023-02-08T17:20:57.792Z,9.38
2023-02-08T17:23:24.970Z,12.52
2023-02-08T17:25:52.675Z,11.60
2023-02-08T17:28:21.107Z,10.88
2023-02-08T17:30:49.175Z,14.82
2023-02-08T17:33:19.491Z,13.20
2023-02-08T17:35:49.767Z,11.77
2023-02-08T17:38:17.188Z,12.73
2023-02-08T17:40:44.899Z,13.55
2023-02-08T17:43:12.958Z,19.40
2023-02-08T17:45:41.864Z,13.65
2023-02-08T17:48:09.518Z,10.90
2023-02-08T17:50:36.930Z,14.15
2023-02-08T17:53:04.235Z,15.32
2023-02-08T17:55:31.666Z,12.57
2023-02-08T17:57:58.875Z,12.30
2023-02-08T18:00:26.063Z,13.88
2023-02-08T18:02:55.298Z,13.48
2023-02-08T18:05:27.127Z,15.30
2023-02-08T18:07:56.066Z,15.07
2023-02-08T18:10:24.108Z,15.65
2023-02-08T18:12:51.508Z,16.40
2023-02-08T18:15:20.891Z,16.80
2023-02-08T18:17:48.756Z,13.73
2023-02-08T18:20:15.817Z,14.13
2023-02-08T18:22:43.849Z,15.27
2023-02-08T18:25:12.349Z,15.55
2023-02-08T18:27:39.417Z,14.23
2023-02-08T18:30:07.122Z,16.58
2023-02-08T18:32:34.191Z,16.63
2023-02-08T18:35:03.837Z,16.65
2023-02-08T18:37:32.128Z,15.25
2023-02-08T18:39:59.752Z,18.90
2023-02-08T18:42:26.846Z,21.88
2023-02-08T18:44:53.875Z,20.38
2023-02-08T18:47:20.742Z,20.27
2023-02-08T18:49:47.847Z,25.92
2023-02-08T18:52:17.752Z,18.80
2023-02-08T18:54:44.525Z,23.75
2023-02-08T18:57:11.436Z,21.20
2023-02-08T18:59:39.205Z,24.83
2023-02-08T19:02:07.875Z,34.25
2023-02-08T19:04:39.343Z,33.20
2023-02-08T19:07:07.184Z,30.58
2023-02-08T19:09:38.418Z,30.48
2023-02-08T19:12:05.911Z,21.88
2023-02-08T19:14:33.363Z,27.33
2023-02-08T19:17:00.661Z,26.10
2023-02-08T19:19:27.465Z,26.10
2023-02-08T19:21:54.361Z,30.83
2023-02-08T19:24:21.255Z,26.63
2023-02-08T19:26:48.210Z,35.70
2023-02-08T19:29:17.608Z,31.85
2023-02-08T19:31:45.170Z,28.77
2023-02-08T19:34:12.610Z,32.80
2023-02-08T19:36:46.420Z,30.20
2023-02-08T19:39:15.084Z,29.55
2023-02-08T19:41:42.181Z,24.20
2023-02-08T19:44:13.185Z,25.35
2023-02-08T19:46:40.350Z,32.40
2023-02-08T19:49:07.671Z,39.85
2023-02-08T19:51:38.913Z,30.40
2023-02-08T19:54:09.274Z,33.22
2023-02-08T19:56:36.440Z,33.58
2023-02-08T19:59:04.834Z,34.63
2023-02-08T20:01:34.255Z,38.67
2023-02-08T20:04:02.604Z,34.85
2023-02-08T20:06:36.182Z,34.40
2023-02-08T20:09:04.680Z,36.60
2023-02-08T20:11:34.623Z,35.55
2023-02-08T20:14:03.070Z,47.15
2023-02-08T20:16:31.831Z,31.67
2023-02-08T20:18:59.521Z,40.63
2023-02-08T20:21:26.528Z,35.50
2023-02-08T20:23:53.638Z,35.67
2023-02-08T20:26:20.460Z,39.72
2023-02-08T20:28:51.801Z,35.95
2023-02-08T20:31:21.684Z,41.95
2023-02-08T20:33:49.020Z,44.47
2023-02-08T20:36:19.875Z,45.80
2023-02-08T20:38:49.083Z,42.00
2023-02-08T20:41:16.674Z,46.45
2023-02-08T20:43:44.843Z,43.50
2023-02-08T20:46:19.344Z,44.83
2023-02-08T20:48:46.519Z,49.70
2023-02-08T20:51:16.801Z,50.97
2023-02-08T20:53:45.575Z,47.80
2023-02-08T20:56:15.294Z,46.42
2023-02-08T20:58:43.342Z,44.45
2023-02-08T21:01:14.528Z,43.40
2023-02-08T21:03:41.812Z,44.28
2023-02-08T21:06:26.515Z,48.80
2023-02-08T21:08:55.383Z,47.03
2023-02-08T21:11:25.620Z,41.83
2023-02-08T21:13:52.935Z,42.75
2023-02-08T21:16:19.931Z,47.63
2023-02-08T21:18:47.239Z,45.60
2023-02-08T21:21:15.195Z,47.38
2023-02-08T21:23:42.543Z,48.17
2023-02-08T21:26:12.227Z,50.67
2023-02-08T21:28:39.157Z,47.83
2023-02-08T21:31:10.338Z,48.53
2023-02-08T21:33:37.236Z,43.83
2023-02-08T21:36:08.658Z,47.90
2023-02-08T21:38:35.534Z,48.47
2023-02-08T21:41:16.114Z,45.83
2023-02-08T21:43:43.386Z,47.97
2023-02-08T21:46:10.565Z,47.50
2023-02-08T21:49:10.043Z,44.25
2023-02-08T21:51:55.596Z,41.25
2023-02-08T21:54:45.783Z,48.53
2023-02-08T21:57:14.337Z,45.15
2023-02-08T21:59:41.530Z,45.55
2023-02-08T22:02:13.761Z,35.75
2023-02-08T22:04:59.429Z,37.13
2023-02-08T22:07:27.301Z,38.97
2023-02-08T22:09:54.254Z,39.78
2023-02-08T22:12:23.045Z,42.50
2023-02-08T22:14:50.426Z,38.17
2023-02-08T22:17:17.663Z,39.65
2023-02-08T22:19:44.651Z,38.53
2023-02-08T22:22:12.640Z,36.30
2023-02-08T22:24:39.634Z,41.55
2023-02-08T22:27:06.478Z,42.70
2023-02-08T22:29:33.727Z,42.10
2023-02-08T22:32:01.280Z,42.67
2023-02-08T22:34:28.383Z,40.17
2023-02-08T22:36:55.307Z,38.15
2023-02-08T22:39:22.219Z,40.20
2023-02-08T22:41:49.116Z,36.78
2023-02-08T22:44:16.022Z,37.90
2023-02-08T22:46:43.030Z,46.38
2023-02-08T22:49:09.918Z,38.13
2023-02-08T22:51:36.926Z,39.85
2023-02-08T22:54:03.862Z,40.53
2023-02-08T22:56:30.718Z,37.28
2023-02-08T22:58:59.708Z,35.38
2023-02-08T23:01:27.378Z,39.90
2023-02-08T23:03:54.233Z,35.03
2023-02-08T23:06:21.157Z,31.88
2023-02-08T23:08:48.260Z,38.53
2023-02-08T23:11:15.797Z,31.83
2023-02-08T23:13:42.680Z,31.65
2023-02-08T23:16:13.576Z,31.30
2023-02-08T23:18:41.213Z,32.97
2023-02-08T23:21:10.960Z,27.95
2023-02-08T23:23:37.861Z,32.15
2023-02-08T23:26:06.356Z,26.77
2023-02-08T23:28:33.598Z,25.85
2023-02-08T23:31:04.045Z,28.75
2023-02-08T23:33:30.942Z,27.00
2023-02-08T23:35:57.884Z,33.75
2023-02-08T23:38:24.854Z,29.77
2023-02-08T23:40:51.640Z,25.88
2023-02-08T23:43:18.566Z,32.10
2023-02-08T23:45:45.392Z,29.23
2023-02-08T23:48:12.245Z,29.20
2023-02-08T23:50:39.122Z,33.45
2023-02-08T23:53:06.017Z,31.38
2023-02-08T23:55:32.868Z,27.02
2023-02-08T23:57:59.805Z,27.60
